createdAt,value
2023-01-04T00:00:40.484Z,4.76
2023-01-04T00:01:40.097Z,4.71
2023-01-04T00:02:41.308Z,4.66
2023-01-04T00:03:44.294Z,4.7
2023-01-04T00:04:40.143Z,4.63
2023-01-04T00:05:40.103Z,4.63
2023-01-04T00:06:40.088Z,4.57
2023-01-04T00:07:40.073Z,4.58
2023-01-04T00:08:40.183Z,4.7
2023-01-04T00:09:41.238Z,4.6
2023-01-04T00:10:40.297Z,4.58
2023-01-04T00:11:40.080Z,4.6
2023-01-04T00:12:40.061Z,4.57
2023-01-04T00:13:40.093Z,4.57
2023-01-04T00:14:43.239Z,4.5
2023-01-04T00:15:40.457Z,4.48
2023-01-04T00:16:40.706Z,4.46
2023-01-04T00:17:40.121Z,4.4
2023-01-04T00:18:40.123Z,4.38
2023-01-04T00:19:40.974Z,4.3
2023-01-04T00:20:40.166Z,4.31
2023-01-04T00:21:40.095Z,4.27
2023-01-04T00:22:40.144Z,4.39
2023-01-04T00:23:40.103Z,4.32
2023-01-04T00:24:40.155Z,4.38
2023-01-04T00:25:43.222Z,4.27
2023-01-04T00:26:40.267Z,4.34
2023-01-04T00:27:40.101Z,4.27
2023-01-04T00:28:40.089Z,4.18
2023-01-04T00:29:40.189Z,4.13
2023-01-04T00:30:43.494Z,4.27
2023-01-04T00:31:40.413Z,4.24
2023-01-04T00:32:40.126Z,4.13
2023-01-04T00:33:40.100Z,4.22
2023-01-04T00:34:40.110Z,4.16
2023-01-04T00:35:50.758Z,4.21
2023-01-04T00:36:43.282Z,4.1
2023-01-04T00:37:40.100Z,4.12
2023-01-04T00:38:40.155Z,4.1
2023-01-04T00:39:40.136Z,4.16
2023-01-04T00:40:40.088Z,4.04
2023-01-04T00:42:13.062Z,4.09
2023-01-04T00:42:40.140Z,4.18
2023-01-04T00:43:40.128Z,4.14
2023-01-04T00:44:40.216Z,4.1
2023-01-04T00:45:40.234Z,4.06
2023-01-04T00:46:40.471Z,4.06
2023-01-04T00:47:40.148Z,3.96
2023-01-04T00:48:53.934Z,3.89
2023-01-04T00:49:40.161Z,4.02
2023-01-04T00:50:40.133Z,4.09
2023-01-04T00:51:40.141Z,3.96
2023-01-04T00:52:43.077Z,4.03
2023-01-04T00:53:40.123Z,3.95
2023-01-04T00:54:40.190Z,3.89
2023-01-04T00:55:40.124Z,3.89
2023-01-04T00:56:40.135Z,3.82
2023-01-04T00:57:40.161Z,3.81
2023-01-04T00:58:40.204Z,3.73
2023-01-04T00:59:40.158Z,3.61
2023-01-04T01:00:40.136Z,3.59
2023-01-04T01:01:40.777Z,3.63
2023-01-04T01:02:41.062Z,3.76
2023-01-04T01:03:43.949Z,3.74
2023-01-04T01:04:40.201Z,3.73
2023-01-04T01:05:40.129Z,3.77
2023-01-04T01:06:40.339Z,3.71
2023-01-04T01:07:40.165Z,3.73
2023-01-04T01:08:40.157Z,3.7
2023-01-04T01:09:40.157Z,3.7
2023-01-04T01:10:40.166Z,3.78
2023-01-04T01:11:40.233Z,3.76
2023-01-04T01:12:40.142Z,3.73
2023-01-04T01:13:40.189Z,3.67
2023-01-04T01:14:43.255Z,3.63
2023-01-04T01:15:40.314Z,3.77
2023-01-04T01:17:00.884Z,3.71
2023-01-04T01:17:40.177Z,3.68
2023-01-04T01:18:40.206Z,3.81
2023-01-04T01:19:40.178Z,3.74
2023-01-04T01:20:40.185Z,3.86
2023-01-04T01:21:40.407Z,3.86
2023-01-04T01:22:40.185Z,3.77
2023-01-04T01:23:40.204Z,3.82
2023-01-04T01:24:40.180Z,3.82
2023-01-04T01:25:43.237Z,3.88
2023-01-04T01:26:40.198Z,3.74
2023-01-04T01:27:40.206Z,3.85
2023-01-04T01:28:40.205Z,3.76
2023-01-04T01:29:40.237Z,3.81
2023-01-04T01:30:40.175Z,3.81
2023-01-04T01:31:40.606Z,3.81
2023-01-04T01:32:40.278Z,3.85
2023-01-04T01:33:40.215Z,3.92
2023-01-04T01:34:40.239Z,3.78
2023-01-04T01:35:40.195Z,3.85
2023-01-04T01:36:40.171Z,3.77
2023-01-04T01:37:40.235Z,3.77
2023-01-04T01:38:40.209Z,3.7
2023-01-04T01:39:40.208Z,3.78
2023-01-04T01:40:40.216Z,3.82
2023-01-04T01:41:40.266Z,3.77
2023-01-04T01:42:40.236Z,3.81
2023-01-04T01:43:40.200Z,3.78
2023-01-04T01:44:40.204Z,3.74
2023-01-04T01:45:40.268Z,3.76
2023-01-04T01:46:40.470Z,3.76
2023-01-04T01:47:40.247Z,3.71
2023-01-04T01:48:40.246Z,3.68
2023-01-04T01:49:40.240Z,3.66
2023-01-04T01:50:40.247Z,3.64
2023-01-04T01:51:40.216Z,3.68
2023-01-04T01:52:40.264Z,3.67
2023-01-04T01:53:40.225Z,3.66
2023-01-04T01:54:40.226Z,3.7
2023-01-04T01:55:40.266Z,3.52
2023-01-04T01:56:40.278Z,3.53
2023-01-04T01:57:40.238Z,3.45
2023-01-04T01:58:40.221Z,3.56
2023-01-04T01:59:40.243Z,3.48
2023-01-04T02:00:40.225Z,3.59
2023-01-04T02:01:40.668Z,3.52
2023-01-04T02:02:40.995Z,3.56
2023-01-04T02:03:40.505Z,3.46
2023-01-04T02:04:40.251Z,3.48
2023-01-04T02:05:40.245Z,3.46
2023-01-04T02:06:40.281Z,3.46
2023-01-04T02:07:40.235Z,3.4
2023-01-04T02:08:43.270Z,3.37
2023-01-04T02:09:40.267Z,3.27
2023-01-04T02:10:40.294Z,3.37
2023-01-04T02:11:40.241Z,3.36
2023-01-04T02:12:40.262Z,3.41
2023-01-04T02:13:40.256Z,3.48
2023-01-04T02:14:40.250Z,3.34
2023-01-04T02:15:40.437Z,3.31
2023-01-04T02:16:40.587Z,3.37
2023-01-04T02:17:40.285Z,3.34
2023-01-04T02:18:40.268Z,3.48
2023-01-04T02:19:43.167Z,3.46
2023-01-04T02:20:40.262Z,3.36
2023-01-04T02:21:40.272Z,3.45
2023-01-04T02:22:40.310Z,3.33
2023-01-04T02:23:40.286Z,3.48
2023-01-04T02:24:40.269Z,3.41
2023-01-04T02:25:40.281Z,3.36
2023-01-04T02:26:40.275Z,3.36
2023-01-04T02:27:40.286Z,3.45
2023-01-04T02:28:40.262Z,3.4
2023-01-04T02:29:40.294Z,3.31
2023-01-04T02:30:43.263Z,3.41
2023-01-04T02:31:40.804Z,3.52
2023-01-04T02:32:40.289Z,3.52
2023-01-04T02:33:40.335Z,3.33
2023-01-04T02:34:43.045Z,3.45
2023-01-04T02:35:40.323Z,3.49
2023-01-04T02:36:40.291Z,3.53
2023-01-04T02:37:40.296Z,3.55
2023-01-04T02:38:40.323Z,3.5
2023-01-04T02:39:40.311Z,3.55
2023-01-04T02:40:40.292Z,3.56
2023-01-04T02:41:43.380Z,3.49
2023-01-04T02:42:40.302Z,3.66
2023-01-04T02:43:40.319Z,3.63
2023-01-04T02:44:40.323Z,3.64
2023-01-04T02:45:40.334Z,3.63
2023-01-04T02:46:40.695Z,3.63
2023-01-04T02:47:40.342Z,3.67
2023-01-04T02:48:40.347Z,3.66
2023-01-04T02:49:40.327Z,3.77
2023-01-04T02:50:40.525Z,3.73
2023-01-04T02:51:40.344Z,3.77
2023-01-04T02:52:43.092Z,3.82
2023-01-04T02:53:40.136Z,3.76
2023-01-04T02:54:40.362Z,3.74
2023-01-04T02:55:40.301Z,3.82
2023-01-04T02:56:40.613Z,3.78
2023-01-04T02:57:43.090Z,3.86
2023-01-04T02:58:40.375Z,3.78
2023-01-04T02:59:40.336Z,3.89
2023-01-04T03:00:40.327Z,3.84
2023-01-04T03:01:40.936Z,3.91
2023-01-04T03:02:41.161Z,3.86
2023-01-04T03:03:43.828Z,3.76
2023-01-04T03:04:40.324Z,3.71
2023-01-04T03:05:40.450Z,3.77
2023-01-04T03:06:40.325Z,3.88
2023-01-04T03:07:40.369Z,3.81
2023-01-04T03:08:43.121Z,3.77
2023-01-04T03:09:40.348Z,3.77
2023-01-04T03:10:40.374Z,3.71
2023-01-04T03:11:40.347Z,3.88
2023-01-04T03:12:40.366Z,3.91
2023-01-04T03:13:40.372Z,3.84
2023-01-04T03:14:43.793Z,3.88
2023-01-04T03:15:40.254Z,3.85
2023-01-04T03:16:40.616Z,3.91
2023-01-04T03:17:40.353Z,3.88
2023-01-04T03:18:40.361Z,3.73
2023-01-04T03:19:43.211Z,3.81
2023-01-04T03:20:40.348Z,3.89
2023-01-04T03:21:40.556Z,3.89
2023-01-04T03:22:40.383Z,3.91
2023-01-04T03:23:40.418Z,4
2023-01-04T03:24:40.355Z,3.91
2023-01-04T03:25:40.396Z,3.85
2023-01-04T03:26:40.388Z,3.91
2023-01-04T03:27:40.371Z,3.89
2023-01-04T03:28:40.363Z,3.85
2023-01-04T03:29:40.382Z,3.96
2023-01-04T03:30:44.055Z,3.95
2023-01-04T03:31:40.721Z,4.02
2023-01-04T03:32:40.387Z,4.02
2023-01-04T03:33:40.372Z,4
2023-01-04T03:34:40.402Z,4.03
2023-01-04T03:35:40.437Z,4.09
2023-01-04T03:36:40.387Z,4.2
2023-01-04T03:37:40.419Z,4.04
2023-01-04T03:38:40.426Z,4.16
2023-01-04T03:39:40.433Z,4.12
2023-01-04T03:40:40.414Z,4.18
2023-01-04T03:41:43.434Z,4.18
2023-01-04T03:42:40.408Z,4.2
2023-01-04T03:43:40.423Z,4.14
2023-01-04T03:44:40.396Z,4.16
2023-01-04T03:45:40.415Z,4.07
2023-01-04T03:46:40.686Z,4.06
2023-01-04T03:47:40.411Z,4.21
2023-01-04T03:48:40.410Z,4.2
2023-01-04T03:49:40.421Z,4.27
2023-01-04T03:50:40.432Z,4.21
2023-01-04T03:51:40.405Z,4.21
2023-01-04T03:52:43.619Z,4.22
2023-01-04T03:53:40.436Z,4.28
2023-01-04T03:54:40.438Z,4.4
2023-01-04T03:55:40.455Z,4.39
2023-01-04T03:56:40.603Z,4.42
2023-01-04T03:57:40.467Z,4.34
2023-01-04T03:58:40.424Z,4.39
2023-01-04T03:59:40.435Z,4.4
2023-01-04T04:00:40.735Z,4.5
2023-01-04T04:01:41.067Z,4.45
2023-01-04T04:02:40.445Z,4.48
2023-01-04T04:03:40.667Z,4.46
2023-01-04T04:04:40.488Z,4.53
2023-01-04T04:05:40.458Z,4.53
2023-01-04T04:06:40.443Z,4.56
2023-01-04T04:07:40.469Z,4.61
2023-01-04T04:08:40.480Z,4.53
2023-01-04T04:09:40.442Z,4.6
2023-01-04T04:10:40.464Z,4.68
2023-01-04T04:11:40.494Z,4.66
2023-01-04T04:12:40.450Z,4.67
2023-01-04T04:13:40.489Z,4.74
2023-01-04T04:14:40.498Z,4.67
2023-01-04T04:15:40.297Z,4.68
2023-01-04T04:16:40.680Z,4.63
2023-01-04T04:17:40.504Z,4.66
2023-01-04T04:18:40.448Z,4.7
2023-01-04T04:19:40.290Z,4.74
2023-01-04T04:20:40.497Z,4.83
2023-01-04T04:21:40.495Z,4.86
2023-01-04T04:22:40.475Z,4.74
2023-01-04T04:23:40.471Z,4.86
2023-01-04T04:24:40.513Z,4.95
2023-01-04T04:25:40.461Z,4.84
2023-01-04T04:26:40.497Z,4.92
2023-01-04T04:27:40.515Z,4.9
2023-01-04T04:28:40.490Z,4.94
2023-01-04T04:29:40.635Z,4.97
2023-01-04T04:30:40.475Z,4.86
2023-01-04T04:31:40.672Z,4.95
2023-01-04T04:32:40.476Z,5.01
2023-01-04T04:33:40.328Z,4.95
2023-01-04T04:34:40.488Z,4.95
2023-01-04T04:35:43.599Z,4.98
2023-01-04T04:36:40.484Z,4.94
2023-01-04T04:37:40.478Z,5.08
2023-01-04T04:38:40.481Z,4.95
2023-01-04T04:39:40.486Z,5.01
2023-01-04T04:40:40.537Z,5.04
2023-01-04T04:41:40.511Z,5.05
2023-01-04T04:42:40.473Z,5.13
2023-01-04T04:43:40.563Z,5.1
2023-01-04T04:44:40.547Z,5.15
2023-01-04T04:45:40.675Z,5.13
2023-01-04T04:46:43.407Z,5.15
2023-01-04T04:47:40.496Z,5.08
2023-01-04T04:48:40.529Z,4.98
2023-01-04T04:49:40.519Z,5.2
2023-01-04T04:50:40.499Z,5.18
2023-01-04T04:51:40.541Z,5.1
2023-01-04T04:52:40.521Z,5.08
2023-01-04T04:53:40.500Z,5.13
2023-01-04T04:54:40.515Z,5.13
2023-01-04T04:55:40.532Z,5.2
2023-01-04T04:56:40.538Z,5.22
2023-01-04T04:57:43.552Z,5.18
2023-01-04T04:58:40.539Z,5.19
2023-01-04T04:59:40.586Z,5.22
2023-01-04T05:00:40.573Z,5.18
2023-01-04T05:01:41.077Z,5.26
2023-01-04T05:02:41.098Z,5.2
2023-01-04T05:03:40.555Z,5.28
2023-01-04T05:04:40.510Z,5.22
2023-01-04T05:05:40.519Z,5.26
2023-01-04T05:06:40.555Z,5.28
2023-01-04T05:07:40.537Z,5.19
2023-01-04T05:08:43.471Z,5.31
2023-01-04T05:09:40.561Z,5.2
2023-01-04T05:10:40.540Z,5.25
2023-01-04T05:11:40.657Z,5.25
2023-01-04T05:12:40.555Z,5.2
2023-01-04T05:13:40.599Z,5.23
2023-01-04T05:14:40.561Z,5.29
2023-01-04T05:15:40.621Z,5.37
2023-01-04T05:16:41.113Z,5.31
2023-01-04T05:17:40.603Z,5.31
2023-01-04T05:18:40.546Z,5.33
2023-01-04T05:19:43.683Z,5.29
2023-01-04T05:20:40.578Z,5.23
2023-01-04T05:21:40.611Z,5.31
2023-01-04T05:22:40.558Z,5.33
2023-01-04T05:23:40.557Z,5.33
2023-01-04T05:24:43.638Z,5.33
2023-01-04T05:25:40.570Z,5.37
2023-01-04T05:26:40.628Z,5.29
2023-01-04T05:27:40.654Z,5.2
2023-01-04T05:28:40.599Z,5.22
2023-01-04T05:29:40.725Z,5.28
2023-01-04T05:30:43.712Z,5.26
2023-01-04T05:31:41.012Z,5.28
2023-01-04T05:32:40.546Z,5.26
2023-01-04T05:33:40.593Z,5.29
2023-01-04T05:34:40.553Z,5.31
2023-01-04T05:35:43.387Z,5.37
2023-01-04T05:36:40.596Z,5.37
2023-01-04T05:37:40.580Z,5.37
2023-01-04T05:38:40.586Z,5.33
2023-01-04T05:39:40.592Z,5.25
2023-01-04T05:40:40.575Z,5.38
2023-01-04T05:42:56.716Z,5.36
2023-01-04T05:45:40.837Z,5.31
2023-01-04T05:46:43.748Z,5.36
2023-01-04T05:48:40.580Z,5.36
2023-01-04T05:49:40.622Z,5.44
2023-01-04T05:50:40.648Z,5.44
2023-01-04T05:51:40.606Z,5.37
2023-01-04T06:05:31.491Z,5.4
2023-01-04T06:05:41.115Z,5.47
2023-01-04T06:06:40.707Z,5.47
2023-01-04T06:07:41.028Z,5.51
2023-01-04T06:08:43.967Z,5.43
2023-01-04T06:09:41.047Z,5.51
2023-01-04T06:10:41.062Z,5.46
2023-01-04T06:11:41.041Z,5.41
2023-01-04T06:12:41.047Z,5.51
2023-01-04T06:13:41.057Z,5.55
2023-01-04T06:14:41.033Z,5.51
2023-01-04T06:15:45.876Z,5.61
2023-01-04T06:16:41.101Z,5.49
2023-01-04T06:17:41.062Z,5.49
2023-01-04T06:18:41.039Z,5.58
2023-01-04T06:19:49.758Z,5.56
2023-01-04T06:20:41.121Z,5.62
2023-01-04T06:21:41.122Z,5.58
2023-01-04T06:22:41.888Z,5.56
2023-01-04T06:23:41.085Z,5.59
2023-01-04T06:24:40.900Z,5.56
2023-01-04T06:25:41.094Z,5.64
2023-01-04T06:26:41.065Z,5.62
2023-01-04T06:27:41.164Z,5.7
2023-01-04T06:28:45.553Z,5.59
2023-01-04T06:29:40.738Z,5.59
2023-01-04T06:30:41.274Z,5.64
2023-01-04T06:31:41.067Z,5.65
2023-01-04T06:32:41.064Z,5.62
2023-01-04T06:33:41.215Z,5.65
2023-01-04T06:34:41.251Z,5.65
2023-01-04T06:35:41.096Z,5.67
2023-01-04T06:36:40.961Z,5.62
2023-01-04T06:37:41.153Z,5.65
2023-01-04T06:38:40.767Z,5.61
2023-01-04T06:39:40.915Z,5.7
2023-01-04T06:40:41.121Z,5.62
2023-01-04T06:41:41.077Z,5.62
2023-01-04T06:42:41.075Z,5.67
2023-01-04T06:43:41.116Z,5.64
2023-01-04T06:44:41.099Z,5.7
2023-01-04T06:45:41.070Z,5.65
2023-01-04T06:46:41.481Z,5.7
2023-01-04T06:47:41.120Z,5.72
2023-01-04T06:48:41.117Z,5.62
2023-01-04T06:49:40.924Z,5.64
2023-01-04T06:50:41.096Z,5.73
2023-01-04T06:51:41.007Z,5.77
2023-01-04T06:52:41.172Z,5.79
2023-01-04T06:53:41.123Z,5.73
2023-01-04T06:54:41.109Z,5.74
2023-01-04T06:55:41.140Z,5.7
2023-01-04T06:56:40.955Z,5.73
2023-01-04T06:57:41.129Z,5.74
2023-01-04T06:58:41.104Z,5.76
2023-01-04T06:59:41.120Z,5.79
2023-01-04T07:00:41.179Z,5.79
2023-01-04T07:01:41.811Z,5.77
2023-01-04T07:03:16.832Z,5.76
2023-01-04T07:03:41.097Z,5.7
2023-01-04T07:04:41.517Z,5.79
2023-01-04T07:05:41.018Z,5.72
2023-01-04T07:06:41.107Z,5.84
2023-01-04T07:07:41.150Z,5.84
2023-01-04T07:08:41.174Z,5.84
2023-01-04T07:09:41.183Z,5.84
2023-01-04T07:10:41.149Z,5.77
2023-01-04T07:11:41.125Z,5.83
2023-01-04T07:12:41.129Z,5.87
2023-01-04T07:13:44.198Z,5.81
2023-01-04T07:14:40.987Z,5.79
2023-01-04T07:15:47.982Z,5.9
2023-01-04T07:16:41.456Z,5.91
2023-01-04T07:17:41.162Z,5.88
2023-01-04T07:18:40.804Z,5.83
2023-01-04T07:19:41.150Z,5.97
2023-01-04T07:20:40.842Z,5.97
2023-01-04T07:21:41.153Z,5.9
2023-01-04T07:22:41.183Z,5.9
2023-01-04T07:23:42.150Z,5.98
2023-01-04T07:24:43.948Z,5.94
2023-01-04T07:25:41.187Z,5.91
2023-01-04T07:26:41.152Z,5.98
2023-01-04T07:27:41.179Z,6.05
2023-01-04T07:28:41.155Z,5.94
2023-01-04T07:29:41.168Z,5.98
2023-01-04T07:30:41.377Z,5.98
2023-01-04T07:31:41.205Z,5.99
2023-01-04T07:32:41.213Z,6.13
2023-01-04T07:33:41.021Z,6.01
2023-01-04T07:34:41.155Z,5.94
2023-01-04T07:35:43.915Z,6.12
2023-01-04T07:36:41.161Z,6.07
2023-01-04T07:37:41.137Z,6.09
2023-01-04T07:38:41.249Z,5.97
2023-01-04T07:39:41.181Z,6.13
2023-01-04T07:41:00.546Z,6.19
2023-01-04T07:41:41.202Z,5.98
2023-01-04T07:42:41.191Z,6.13
2023-01-04T07:43:41.203Z,6.1
2023-01-04T07:44:41.194Z,6.13
2023-01-04T07:45:41.205Z,6.19
2023-01-04T07:46:44.522Z,6.15
2023-01-04T07:47:41.014Z,6.17
2023-01-04T07:48:41.028Z,6.19
2023-01-04T07:49:41.194Z,6.22
2023-01-04T07:50:41.184Z,6.2
2023-01-04T07:51:41.896Z,6.19
2023-01-04T07:52:41.192Z,6.26
2023-01-04T07:53:41.192Z,6.32
2023-01-04T07:54:41.193Z,6.34
2023-01-04T07:55:41.198Z,6.26
2023-01-04T07:56:41.101Z,6.28
2023-01-04T07:57:43.964Z,6.32
2023-01-04T07:58:41.208Z,6.34
2023-01-04T07:59:41.195Z,6.38
2023-01-04T08:00:41.277Z,6.31
2023-01-04T08:01:41.693Z,6.43
2023-01-04T08:02:44.749Z,6.57
2023-01-04T08:03:41.239Z,6.49
2023-01-04T08:04:41.333Z,6.43
2023-01-04T08:05:41.261Z,6.54
2023-01-04T08:06:41.278Z,6.44
2023-01-04T08:07:41.425Z,6.54
2023-01-04T08:08:44.073Z,6.6
2023-01-04T08:09:41.204Z,6.59
2023-01-04T08:10:41.259Z,6.53
2023-01-04T08:11:41.274Z,6.54
2023-01-04T08:12:41.295Z,6.56
2023-01-04T08:13:44.156Z,6.56
2023-01-04T08:14:41.224Z,6.49
2023-01-04T08:15:41.331Z,6.52
2023-01-04T08:16:41.512Z,6.57
2023-01-04T08:17:41.241Z,6.54
2023-01-04T08:18:41.341Z,6.57
2023-01-04T08:19:43.994Z,6.62
2023-01-04T08:20:41.266Z,6.5
2023-01-04T08:21:41.385Z,6.59
2023-01-04T08:22:41.221Z,6.64
2023-01-04T08:23:41.235Z,6.65
2023-01-04T08:24:44.088Z,6.57
2023-01-04T08:25:41.268Z,6.6
2023-01-04T08:26:41.272Z,6.6
2023-01-04T08:27:41.248Z,6.6
2023-01-04T08:28:41.280Z,6.7
2023-01-04T08:29:41.314Z,6.71
2023-01-04T08:30:41.239Z,6.68
2023-01-04T08:31:41.704Z,6.7
2023-01-04T08:32:41.307Z,6.67
2023-01-04T08:33:41.227Z,6.71
2023-01-04T08:34:41.244Z,6.7
2023-01-04T08:35:44.412Z,6.71
2023-01-04T08:36:41.267Z,6.78
2023-01-04T08:37:41.266Z,6.78
2023-01-04T08:39:11.262Z,6.75
2023-01-04T08:39:49.120Z,6.77
2023-01-04T08:41:57.732Z,6.82
2023-01-04T08:42:35.929Z,6.82
2023-01-04T08:43:30.017Z,6.82
2023-01-04T08:44:30.081Z,6.89
2023-01-04T08:45:32.796Z,6.83
2023-01-04T08:46:30.212Z,6.85
2023-01-04T08:47:30.139Z,6.83
2023-01-04T08:48:30.048Z,6.89
2023-01-04T08:49:30.024Z,6.86
2023-01-04T08:50:30.011Z,6.87
2023-01-04T08:51:30.022Z,7
2023-01-04T08:52:30.039Z,6.93
2023-01-04T08:53:29.840Z,6.97
2023-01-04T08:54:30.212Z,7.04
2023-01-04T08:55:30.044Z,7
2023-01-04T08:56:32.797Z,7.05
2023-01-04T08:57:30.071Z,7.04
2023-01-04T08:58:29.995Z,6.93
2023-01-04T08:59:30.043Z,7.01
2023-01-04T09:00:30.257Z,6.96
2023-01-04T09:01:30.536Z,7.04
2023-01-04T09:02:30.778Z,7.07
2023-01-04T09:03:30.336Z,7.15
2023-01-04T09:04:30.322Z,7.11
2023-01-04T09:05:30.050Z,7.14
2023-01-04T09:06:30.058Z,7.19
2023-01-04T09:07:32.999Z,7.22
2023-01-04T09:08:30.033Z,7.26
2023-01-04T09:09:30.123Z,7.19
2023-01-04T09:10:30.048Z,7.14
2023-01-04T09:11:30.077Z,7.23
2023-01-04T09:12:30.071Z,7.28
2023-01-04T09:13:29.871Z,7.28
2023-01-04T09:14:30.051Z,7.36
2023-01-04T09:15:29.907Z,7.32
2023-01-04T09:16:30.401Z,7.4
2023-01-04T09:17:30.135Z,7.39
2023-01-04T09:18:38.060Z,7.46
2023-01-04T09:19:30.077Z,7.46
2023-01-04T09:20:30.073Z,7.53
2023-01-04T09:21:30.339Z,7.53
2023-01-04T09:22:30.104Z,7.53
2023-01-04T09:23:29.876Z,7.59
2023-01-04T09:24:30.093Z,7.64
2023-01-04T09:25:30.087Z,7.64
2023-01-04T09:26:30.125Z,7.69
2023-01-04T09:27:30.079Z,7.72
2023-01-04T09:28:30.071Z,7.81
2023-01-04T09:29:30.071Z,7.85
2023-01-04T09:30:30.188Z,7.78
2023-01-04T09:31:30.363Z,7.87
2023-01-04T09:32:30.141Z,7.93
2023-01-04T09:34:22.661Z,7.87
2023-01-04T09:34:32.134Z,7.96
2023-01-04T09:35:32.127Z,7.98
2023-01-04T09:36:32.142Z,8.02
2023-01-04T09:37:32.141Z,8.02
2023-01-04T09:38:32.124Z,8.03
2023-01-04T09:39:32.144Z,8.06
2023-01-04T09:40:32.128Z,8.09
2023-01-04T09:41:32.128Z,8.11
2023-01-04T09:42:40.160Z,8.14
2023-01-04T09:43:32.097Z,7.99
2023-01-04T09:45:26.042Z,8.17
2023-01-04T09:45:38.411Z,8.21
2023-01-04T09:46:35.707Z,8.16
2023-01-04T09:47:35.601Z,8.2
2023-01-04T09:48:38.275Z,8.21
2023-01-04T09:49:35.558Z,8.27
2023-01-04T09:50:35.550Z,8.31
2023-01-04T09:51:35.563Z,8.34
2023-01-04T09:52:35.592Z,8.38
2023-01-04T09:53:35.425Z,8.34
2023-01-04T09:54:35.575Z,8.44
2023-01-04T09:55:44.339Z,8.39
2023-01-04T09:56:38.309Z,8.38
2023-01-04T09:57:35.557Z,8.45
2023-01-04T09:58:35.404Z,8.53
2023-01-04T09:59:35.578Z,8.49
2023-01-04T10:00:43.674Z,8.52
2023-01-04T10:01:36.135Z,8.54
2023-01-04T10:02:36.230Z,8.6
2023-01-04T10:03:36.114Z,8.68
2023-01-04T10:04:35.599Z,8.68
2023-01-04T10:05:35.616Z,8.61
2023-01-04T10:06:35.618Z,8.78
2023-01-04T10:07:38.664Z,8.75
2023-01-04T10:08:35.610Z,8.78
2023-01-04T10:09:35.606Z,8.71
2023-01-04T10:10:35.593Z,8.78
2023-01-04T10:11:35.589Z,8.68
2023-01-04T10:12:35.589Z,8.84
2023-01-04T10:13:35.695Z,8.78
2023-01-04T10:14:35.576Z,8.81
2023-01-04T10:15:35.577Z,8.78
2023-01-04T10:17:28.444Z,8.82
2023-01-04T10:21:44.521Z,8.84
2023-01-04T10:22:44.337Z,8.78
2023-01-04T10:23:44.373Z,8.87
2023-01-04T10:24:47.372Z,8.9
2023-01-04T10:25:44.169Z,8.87
2023-01-04T10:26:44.171Z,8.89
2023-01-04T10:27:47.630Z,8.84
2023-01-04T10:28:44.370Z,8.84
2023-01-04T10:29:44.345Z,8.84
2023-01-04T10:30:44.371Z,8.95
2023-01-04T10:31:48.499Z,8.9
2023-01-04T10:32:44.328Z,8.9
2023-01-04T10:33:44.383Z,8.97
2023-01-04T10:34:44.373Z,8.95
2023-01-04T10:35:47.172Z,9
2023-01-04T10:36:44.375Z,8.96
2023-01-04T10:37:44.383Z,9.08
2023-01-04T10:38:44.381Z,9.08
2023-01-04T10:39:44.361Z,8.96
2023-01-04T10:40:47.388Z,9.03
2023-01-04T10:41:44.355Z,9.16
2023-01-04T10:42:44.373Z,9.08
2023-01-04T10:44:17.050Z,9.12
2023-01-04T10:44:44.390Z,9.09
2023-01-04T10:45:44.386Z,9.22
2023-01-04T10:46:47.689Z,9.26
2023-01-04T10:47:44.715Z,9.05
2023-01-04T10:48:44.431Z,9.22
2023-01-04T10:49:44.223Z,9.22
2023-01-04T10:50:44.379Z,9.3
2023-01-04T10:51:44.471Z,9.21
2023-01-04T10:52:44.418Z,9.24
2023-01-04T10:53:44.450Z,9.29
2023-01-04T10:54:44.382Z,9.24
2023-01-04T10:56:29.109Z,9.3
2023-01-04T10:56:44.395Z,9.33
2023-01-04T10:57:47.467Z,9.29
2023-01-04T10:58:44.427Z,9.33
2023-01-04T10:59:44.496Z,9.29
2023-01-04T11:00:44.652Z,9.27
2023-01-04T11:01:45.387Z,9.31
2023-01-04T11:02:45.065Z,9.39
2023-01-04T11:03:44.731Z,9.31
2023-01-04T11:04:44.404Z,9.39
2023-01-04T11:05:44.404Z,9.36
2023-01-04T11:06:44.453Z,9.44
2023-01-04T11:07:44.475Z,9.48
2023-01-04T11:08:47.217Z,9.42
2023-01-04T11:09:44.425Z,9.45
2023-01-04T11:10:44.407Z,9.48
2023-01-04T11:11:44.401Z,9.48
2023-01-04T11:12:44.396Z,9.47
2023-01-04T11:13:44.524Z,9.44
2023-01-04T11:14:44.445Z,9.51
2023-01-04T11:15:44.419Z,9.4
2023-01-04T11:16:44.764Z,9.49
2023-01-04T11:17:44.445Z,9.48
2023-01-04T11:18:44.483Z,9.45
2023-01-04T11:19:44.447Z,9.47
2023-01-04T11:20:44.426Z,9.54
2023-01-04T11:21:44.480Z,9.49
2023-01-04T11:22:44.668Z,9.48
2023-01-04T11:23:44.572Z,9.62
2023-01-04T11:25:36.383Z,9.49
2023-01-04T11:25:50.445Z,9.51
2023-01-04T11:26:46.243Z,9.59
2023-01-04T11:27:46.291Z,9.62
2023-01-04T11:28:46.284Z,9.55
2023-01-04T11:29:46.289Z,9.67
2023-01-04T11:30:46.246Z,9.54
2023-01-04T11:31:46.571Z,9.48
2023-01-04T11:32:46.262Z,9.55
2023-01-04T11:33:46.277Z,9.58
2023-01-04T11:34:46.302Z,9.54
2023-01-04T11:35:50.424Z,9.58
2023-01-04T11:36:46.304Z,9.62
2023-01-04T11:37:46.267Z,9.62
2023-01-04T11:38:46.316Z,9.74
2023-01-04T11:39:46.308Z,9.64
2023-01-04T11:40:49.306Z,9.69
2023-01-04T11:41:46.270Z,9.8
2023-01-04T11:42:46.279Z,9.77
2023-01-04T11:43:46.447Z,9.8
2023-01-04T11:44:46.273Z,9.76
2023-01-04T11:45:46.391Z,9.81
2023-01-04T11:46:46.271Z,9.69
2023-01-04T11:47:46.291Z,9.8
2023-01-04T11:48:46.311Z,9.82
2023-01-04T11:49:46.285Z,9.82
2023-01-04T11:50:46.345Z,9.74
2023-01-04T11:51:49.314Z,9.8
2023-01-04T11:52:46.286Z,9.99
2023-01-04T11:53:46.331Z,9.82
2023-01-04T11:54:46.326Z,9.91
2023-01-04T11:55:49.138Z,9.9
2023-01-04T11:56:46.339Z,9.87
2023-01-04T11:57:46.306Z,9.9
2023-01-04T11:58:46.365Z,9.87
2023-01-04T11:59:46.319Z,9.84
2023-01-04T12:00:46.287Z,9.97
2023-01-04T12:01:46.556Z,9.88
2023-01-04T12:03:05.765Z,9.91
2023-01-04T12:03:46.329Z,9.92
2023-01-04T12:04:46.388Z,9.88
2023-01-04T12:05:46.282Z,9.94
2023-01-04T12:06:46.363Z,9.9
2023-01-04T12:07:46.323Z,9.91
2023-01-04T12:08:46.424Z,9.95
2023-01-04T12:09:46.339Z,10.05
2023-01-04T12:10:46.337Z,10.05
2023-01-04T12:11:46.204Z,9.95
2023-01-04T12:12:46.348Z,10.05
2023-01-04T12:13:49.202Z,10.02
2023-01-04T12:14:46.342Z,10.1
2023-01-04T12:15:46.504Z,9.99
2023-01-04T12:16:46.346Z,10.15
2023-01-04T12:17:47.976Z,10.13
2023-01-04T12:18:46.373Z,10.17
2023-01-04T12:19:46.337Z,10.21
2023-01-04T12:20:46.331Z,10.13
2023-01-04T12:21:46.332Z,10.2
2023-01-04T12:22:46.333Z,10.17
2023-01-04T12:23:46.365Z,10.21
2023-01-04T12:24:49.839Z,10.21
2023-01-04T12:25:46.398Z,10.24
2023-01-04T12:26:46.377Z,10.3
2023-01-04T12:27:46.351Z,10.27
2023-01-04T12:28:46.433Z,10.33
2023-01-04T12:29:46.384Z,10.42
2023-01-04T12:30:46.457Z,10.42
2023-01-04T12:31:46.329Z,10.39
2023-01-04T12:32:46.604Z,10.61
2023-01-04T12:33:46.375Z,10.43
2023-01-04T12:34:46.372Z,10.49
2023-01-04T12:35:49.230Z,10.53
2023-01-04T12:36:46.357Z,10.64
2023-01-04T12:37:46.348Z,10.51
2023-01-04T12:38:46.390Z,10.51
2023-01-04T12:39:46.407Z,10.62
2023-01-04T12:40:49.464Z,10.67
2023-01-04T12:41:46.371Z,10.64
2023-01-04T12:42:46.396Z,10.59
2023-01-04T12:43:51.648Z,10.71
2023-01-04T12:44:46.382Z,10.69
2023-01-04T12:45:46.638Z,10.62
2023-01-04T12:46:49.586Z,10.65
2023-01-04T12:47:46.385Z,10.64
2023-01-04T12:48:46.409Z,10.64
2023-01-04T12:49:46.392Z,10.64
2023-01-04T12:51:29.871Z,10.69
2023-01-04T12:52:42.852Z,10.68
2023-01-04T12:53:35.738Z,10.69
2023-01-04T12:54:35.204Z,10.68
2023-01-04T12:55:40.662Z,10.82
2023-01-04T12:56:38.211Z,10.62
2023-01-04T12:57:41.372Z,10.64
2023-01-04T12:59:35.270Z,10.72
2023-01-04T12:59:44.790Z,10.69
2023-01-04T13:00:44.773Z,10.8
2023-01-04T13:01:45.227Z,10.71
2023-01-04T13:02:48.552Z,10.76
2023-01-04T13:03:44.837Z,10.68
2023-01-04T13:04:44.620Z,10.65
2023-01-04T13:06:02.162Z,10.77
2023-01-04T13:06:45.058Z,10.77
2023-01-04T13:07:44.774Z,10.72
2023-01-04T13:08:44.757Z,10.84
2023-01-04T13:09:50.970Z,10.76
2023-01-04T13:10:44.757Z,10.76
2023-01-04T13:11:44.773Z,10.69
2023-01-04T13:12:44.600Z,10.79
2023-01-04T13:13:47.398Z,10.83
2023-01-04T13:14:44.869Z,10.84
2023-01-04T13:15:44.779Z,10.76
2023-01-04T13:16:45.020Z,10.72
2023-01-04T13:17:44.783Z,10.75
2023-01-04T13:18:44.791Z,10.83
2023-01-04T13:19:44.808Z,10.71
2023-01-04T13:20:44.771Z,10.75
2023-01-04T13:21:44.822Z,10.76
2023-01-04T13:22:44.787Z,10.76
2023-01-04T13:23:44.780Z,10.75
2023-01-04T13:24:47.573Z,10.82
2023-01-04T13:25:44.807Z,10.76
2023-01-04T13:26:44.915Z,10.76
2023-01-04T13:27:44.785Z,10.72
2023-01-04T13:28:44.816Z,10.72
2023-01-04T13:29:44.829Z,10.71
2023-01-04T13:30:44.898Z,10.8
2023-01-04T13:31:45.237Z,10.82
2023-01-04T13:33:29.272Z,10.72
2023-01-04T13:33:45.010Z,10.8
2023-01-04T13:34:44.849Z,10.8
2023-01-04T13:35:47.657Z,10.76
2023-01-04T13:36:44.835Z,10.75
2023-01-04T13:37:44.817Z,10.76
2023-01-04T13:38:44.820Z,10.76
2023-01-04T13:39:44.857Z,10.72
2023-01-04T13:40:52.156Z,10.84